Archival Weather

Heathrow

London, United Kingdom (EGLL)

Report from: Wednesday, December 6, 2023 6:20 AM GMT
Current time: Saturday, March 2, 2024 9:25 AM GMT

Current weather – Weather history – Daily summaries
Weather forecast

Temperature1.0°C (33.8°F)
Dew point1.0°C (33.8°F)
Winds 2 kts (1 m/s, 2.3 mph) Vrb
Winds variableWinds variable
Visibility6.2 mi. (10 km)
Clouds Sky clear
Altimeter30.03 in.Hg (1017 mB)
Relative humidity100 %
Density altitude-1,737 ft. (-530 m)
Remarks Fully automated report
No clouds detected
Flight conditions Visual Meteorological Conditions
Raw dataEGLL 060620Z AUTO VRB02KT 9999 NCD 01/01 Q1017 TEMPO 2000 BR
An error has occurred. This application may no longer respond until reloaded. Reload 🗙